sensor_id;sensor_type;location;lat;lon;timestamp;P1;durP1;ratioP1;P2;durP2;ratioP2
37895;SDS011;23733;53.254;10.430;2022-11-20T00:01:15;8.57;;;5.60;;
37895;SDS011;23733;53.254;10.430;2022-11-20T00:03:45;7.77;;;5.40;;
37895;SDS011;23733;53.254;10.430;2022-11-20T00:06:13;12.60;;;6.33;;
37895;SDS011;23733;53.254;10.430;2022-11-20T00:08:41;9.23;;;5.87;;
37895;SDS011;23733;53.254;10.430;2022-11-20T00:11:08;8.93;;;5.80;;
37895;SDS011;23733;53.254;10.430;2022-11-20T00:13:36;9.37;;;6.13;;
37895;SDS011;23733;53.254;10.430;2022-11-20T00:16:03;9.73;;;6.07;;
37895;SDS011;23733;53.254;10.430;2022-11-20T00:18:30;9.70;;;6.20;;
37895;SDS011;23733;53.254;10.430;2022-11-20T00:21:09;10.00;;;6.10;;
37895;SDS011;23733;53.254;10.430;2022-11-20T00:23:37;8.70;;;5.90;;
37895;SDS011;23733;53.254;10.430;2022-11-20T00:26:04;9.50;;;5.80;;
37895;SDS011;23733;53.254;10.430;2022-11-20T00:28:31;8.80;;;6.20;;
37895;SDS011;23733;53.254;10.430;2022-11-20T00:31:07;10.90;;;6.37;;
37895;SDS011;23733;53.254;10.430;2022-11-20T00:33:35;9.03;;;5.50;;
37895;SDS011;23733;53.254;10.430;2022-11-20T00:36:02;10.47;;;6.10;;
37895;SDS011;23733;53.254;10.430;2022-11-20T00:38:29;9.80;;;6.20;;
37895;SDS011;23733;53.254;10.430;2022-11-20T00:40:57;10.07;;;7.00;;
37895;SDS011;23733;53.254;10.430;2022-11-20T00:43:24;11.57;;;6.77;;
37895;SDS011;23733;53.254;10.430;2022-11-20T00:45:51;10.90;;;6.77;;
37895;SDS011;23733;53.254;10.430;2022-11-20T00:48:25;11.33;;;6.90;;
37895;SDS011;23733;53.254;10.430;2022-11-20T00:50:51;10.73;;;6.77;;
37895;SDS011;23733;53.254;10.430;2022-11-20T00:53:18;11.07;;;6.97;;
37895;SDS011;23733;53.254;10.430;2022-11-20T00:56:03;13.30;;;7.37;;
37895;SDS011;23733;53.254;10.430;2022-11-20T00:58:32;9.83;;;6.60;;
37895;SDS011;23733;53.254;10.430;2022-11-20T01:01:01;10.53;;;7.07;;
37895;SDS011;23733;53.254;10.430;2022-11-20T01:03:30;11.13;;;7.50;;
37895;SDS011;23733;53.254;10.430;2022-11-20T01:06:01;10.20;;;6.43;;
37895;SDS011;23733;53.254;10.430;2022-11-20T01:08:32;10.70;;;7.88;;
37895;SDS011;23733;53.254;10.430;2022-11-20T01:11:02;11.90;;;7.33;;
37895;SDS011;23733;53.254;10.430;2022-11-20T01:13:33;10.00;;;7.27;;
37895;SDS011;23733;53.254;10.430;2022-11-20T01:16:13;10.83;;;7.20;;
37895;SDS011;23733;53.254;10.430;2022-11-20T01:18:41;11.10;;;7.17;;
37895;SDS011;23733;53.254;10.430;2022-11-20T01:21:13;11.13;;;7.10;;
37895;SDS011;23733;53.254;10.430;2022-11-20T01:23:45;12.47;;;6.73;;
37895;SDS011;23733;53.254;10.430;2022-11-20T01:26:13;9.70;;;6.80;;
37895;SDS011;23733;53.254;10.430;2022-11-20T01:28:41;9.13;;;6.57;;
37895;SDS011;23733;53.254;10.430;2022-11-20T01:31:16;11.07;;;6.97;;
37895;SDS011;23733;53.254;10.430;2022-11-20T01:33:47;12.00;;;7.27;;
37895;SDS011;23733;53.254;10.430;2022-11-20T01:36:15;10.40;;;6.87;;
37895;SDS011;23733;53.254;10.430;2022-11-20T01:38:42;10.43;;;7.13;;
37895;SDS011;23733;53.254;10.430;2022-11-20T01:41:08;10.03;;;6.73;;
37895;SDS011;23733;53.254;10.430;2022-11-20T01:43:35;9.50;;;6.73;;
37895;SDS011;23733;53.254;10.430;2022-11-20T01:46:02;9.37;;;6.47;;
37895;SDS011;23733;53.254;10.430;2022-11-20T01:51:13;13.07;;;6.93;;
37895;SDS011;23733;53.254;10.430;2022-11-20T01:53:44;13.33;;;7.60;;
37895;SDS011;23733;53.254;10.430;2022-11-20T01:56:11;11.43;;;6.70;;
37895;SDS011;23733;53.254;10.430;2022-11-20T01:58:39;8.40;;;6.23;;
37895;SDS011;23733;53.254;10.430;2022-11-20T02:01:12;10.17;;;6.23;;
37895;SDS011;23733;53.254;10.430;2022-11-20T02:03:39;11.13;;;5.87;;
37895;SDS011;23733;53.254;10.430;2022-11-20T02:06:29;8.67;;;5.87;;
37895;SDS011;23733;53.254;10.430;2022-11-20T02:09:01;8.43;;;5.80;;
37895;SDS011;23733;53.254;10.430;2022-11-20T02:11:27;8.60;;;6.27;;
37895;SDS011;23733;53.254;10.430;2022-11-20T02:13:54;9.53;;;5.33;;
37895;SDS011;23733;53.254;10.430;2022-11-20T02:16:22;11.00;;;6.27;;
37895;SDS011;23733;53.254;10.430;2022-11-20T02:18:58;13.77;;;6.30;;
37895;SDS011;23733;53.254;10.430;2022-11-20T02:21:40;9.43;;;6.13;;
37895;SDS011;23733;53.254;10.430;2022-11-20T02:24:14;8.47;;;5.77;;
37895;SDS011;23733;53.254;10.430;2022-11-20T02:32:25;10.03;;;5.80;;
37895;SDS011;23733;53.254;10.430;2022-11-20T02:34:53;7.50;;;5.60;;
37895;SDS011;23733;53.254;10.430;2022-11-20T02:37:19;7.80;;;5.63;;
37895;SDS011;23733;53.254;10.430;2022-11-20T02:39:46;10.67;;;6.17;;
37895;SDS011;23733;53.254;10.430;2022-11-20T02:42:14;7.20;;;5.30;;
37895;SDS011;23733;53.254;10.430;2022-11-20T02:44:40;9.43;;;5.90;;
37895;SDS011;23733;53.254;10.430;2022-11-20T02:47:06;9.47;;;5.30;;
37895;SDS011;23733;53.254;10.430;2022-11-20T02:49:32;9.90;;;5.40;;
37895;SDS011;23733;53.254;10.430;2022-11-20T02:51:58;11.17;;;5.83;;
37895;SDS011;23733;53.254;10.430;2022-11-20T02:54:25;9.20;;;5.43;;
37895;SDS011;23733;53.254;10.430;2022-11-20T02:56:51;10.70;;;6.23;;
37895;SDS011;23733;53.254;10.430;2022-11-20T02:59:17;7.63;;;5.43;;
37895;SDS011;23733;53.254;10.430;2022-11-20T03:01:43;8.77;;;5.83;;
37895;SDS011;23733;53.254;10.430;2022-11-20T03:04:09;9.53;;;6.03;;
37895;SDS011;23733;53.254;10.430;2022-11-20T03:06:35;9.07;;;5.67;;
37895;SDS011;23733;53.254;10.430;2022-11-20T03:09:01;8.17;;;5.87;;
37895;SDS011;23733;53.254;10.430;2022-11-20T03:11:27;9.03;;;5.20;;
37895;SDS011;23733;53.254;10.430;2022-11-20T03:13:54;10.33;;;5.67;;
37895;SDS011;23733;53.254;10.430;2022-11-20T03:16:20;10.10;;;6.23;;
37895;SDS011;23733;53.254;10.430;2022-11-20T03:18:48;8.87;;;6.10;;
37895;SDS011;23733;53.254;10.430;2022-11-20T03:21:15;9.20;;;5.77;;
37895;SDS011;23733;53.254;10.430;2022-11-20T03:23:41;9.70;;;5.50;;
37895;SDS011;23733;53.254;10.430;2022-11-20T03:26:17;9.37;;;6.00;;
37895;SDS011;23733;53.254;10.430;2022-11-20T03:28:49;8.13;;;5.80;;
37895;SDS011;23733;53.254;10.430;2022-11-20T03:31:18;9.57;;;5.47;;
37895;SDS011;23733;53.254;10.430;2022-11-20T03:33:46;8.67;;;5.83;;
37895;SDS011;23733;53.254;10.430;2022-11-20T03:36:13;7.90;;;5.63;;
37895;SDS011;23733;53.254;10.430;2022-11-20T03:38:40;8.07;;;5.10;;
37895;SDS011;23733;53.254;10.430;2022-11-20T03:41:08;7.03;;;5.23;;
37895;SDS011;23733;53.254;10.430;2022-11-20T03:43:38;8.23;;;5.47;;
37895;SDS011;23733;53.254;10.430;2022-11-20T03:46:05;7.70;;;4.73;;
37895;SDS011;23733;53.254;10.430;2022-11-20T03:48:32;10.97;;;5.90;;
37895;SDS011;23733;53.254;10.430;2022-11-20T03:51:17;6.97;;;5.47;;
37895;SDS011;23733;53.254;10.430;2022-11-20T03:53:48;9.63;;;5.47;;
37895;SDS011;23733;53.254;10.430;2022-11-20T03:56:16;6.83;;;5.17;;
37895;SDS011;23733;53.254;10.430;2022-11-20T03:58:44;7.87;;;5.17;;
37895;SDS011;23733;53.254;10.430;2022-11-20T04:01:13;10.50;;;5.37;;
37895;SDS011;23733;53.254;10.430;2022-11-20T04:03:41;8.90;;;5.83;;
37895;SDS011;23733;53.254;10.430;2022-11-20T04:06:17;9.67;;;5.57;;
37895;SDS011;23733;53.254;10.430;2022-11-20T04:08:54;7.27;;;5.30;;
37895;SDS011;23733;53.254;10.430;2022-11-20T04:11:22;8.50;;;5.30;;
37895;SDS011;23733;53.254;10.430;2022-11-20T04:13:52;8.03;;;5.37;;
37895;SDS011;23733;53.254;10.430;2022-11-20T04:16:20;7.47;;;5.00;;
37895;SDS011;23733;53.254;10.430;2022-11-20T04:18:51;8.37;;;5.50;;
37895;SDS011;23733;53.254;10.430;2022-11-20T04:21:21;7.37;;;5.17;;
37895;SDS011;23733;53.254;10.430;2022-11-20T04:23:47;8.03;;;5.30;;
37895;SDS011;23733;53.254;10.430;2022-11-20T04:26:14;9.97;;;5.57;;
37895;SDS011;23733;53.254;10.430;2022-11-20T04:28:40;7.27;;;5.13;;
37895;SDS011;23733;53.254;10.430;2022-11-20T04:33:40;8.63;;;5.50;;
37895;SDS011;23733;53.254;10.430;2022-11-20T04:36:13;7.50;;;5.17;;
37895;SDS011;23733;53.254;10.430;2022-11-20T04:38:44;9.43;;;5.10;;
37895;SDS011;23733;53.254;10.430;2022-11-20T04:41:17;8.83;;;5.90;;
37895;SDS011;23733;53.254;10.430;2022-11-20T04:43:46;8.77;;;5.60;;
37895;SDS011;23733;53.254;10.430;2022-11-20T04:46:13;11.70;;;6.10;;
37895;SDS011;23733;53.254;10.430;2022-11-20T04:48:39;9.27;;;5.60;;
37895;SDS011;23733;53.254;10.430;2022-11-20T04:51:05;8.43;;;5.17;;
37895;SDS011;23733;53.254;10.430;2022-11-20T04:53:31;7.53;;;5.30;;
37895;SDS011;23733;53.254;10.430;2022-11-20T04:56:00;8.80;;;5.63;;
37895;SDS011;23733;53.254;10.430;2022-11-20T04:58:30;9.40;;;5.90;;
37895;SDS011;23733;53.254;10.430;2022-11-20T05:01:06;10.60;;;6.00;;
37895;SDS011;23733;53.254;10.430;2022-11-20T05:03:37;9.53;;;5.90;;
37895;SDS011;23733;53.254;10.430;2022-11-20T05:06:04;12.13;;;6.17;;
37895;SDS011;23733;53.254;10.430;2022-11-20T05:08:32;11.90;;;6.27;;
37895;SDS011;23733;53.254;10.430;2022-11-20T05:11:08;10.10;;;6.10;;
37895;SDS011;23733;53.254;10.430;2022-11-20T05:13:39;10.33;;;5.77;;
37895;SDS011;23733;53.254;10.430;2022-11-20T05:16:12;7.03;;;5.40;;
37895;SDS011;23733;53.254;10.430;2022-11-20T05:18:40;11.20;;;6.40;;
37895;SDS011;23733;53.254;10.430;2022-11-20T05:21:06;10.50;;;6.87;;
37895;SDS011;23733;53.254;10.430;2022-11-20T05:23:33;13.67;;;6.20;;
37895;SDS011;23733;53.254;10.430;2022-11-20T05:26:00;9.00;;;6.07;;
37895;SDS011;23733;53.254;10.430;2022-11-20T05:28:27;10.57;;;6.90;;
37895;SDS011;23733;53.254;10.430;2022-11-20T05:30:54;12.80;;;7.00;;
37895;SDS011;23733;53.254;10.430;2022-11-20T05:33:20;11.17;;;6.33;;
37895;SDS011;23733;53.254;10.430;2022-11-20T05:35:47;8.80;;;6.33;;
37895;SDS011;23733;53.254;10.430;2022-11-20T05:38:13;14.23;;;6.83;;
37895;SDS011;23733;53.254;10.430;2022-11-20T05:40:40;10.73;;;6.30;;
37895;SDS011;23733;53.254;10.430;2022-11-20T05:43:06;10.83;;;6.83;;
37895;SDS011;23733;53.254;10.430;2022-11-20T05:45:32;10.57;;;6.87;;
37895;SDS011;23733;53.254;10.430;2022-11-20T05:47:58;9.93;;;6.00;;
37895;SDS011;23733;53.254;10.430;2022-11-20T05:50:26;11.33;;;7.10;;
37895;SDS011;23733;53.254;10.430;2022-11-20T05:52:53;11.10;;;7.03;;
37895;SDS011;23733;53.254;10.430;2022-11-20T05:55:19;10.10;;;6.63;;
37895;SDS011;23733;53.254;10.430;2022-11-20T05:57:45;11.23;;;7.17;;
37895;SDS011;23733;53.254;10.430;2022-11-20T06:00:11;10.47;;;7.07;;
37895;SDS011;23733;53.254;10.430;2022-11-20T06:02:38;14.10;;;8.20;;
37895;SDS011;23733;53.254;10.430;2022-11-20T06:05:04;12.53;;;8.40;;
37895;SDS011;23733;53.254;10.430;2022-11-20T06:07:30;13.70;;;8.17;;
37895;SDS011;23733;53.254;10.430;2022-11-20T06:09:56;12.83;;;7.77;;
37895;SDS011;23733;53.254;10.430;2022-11-20T06:12:22;15.90;;;9.57;;
37895;SDS011;23733;53.254;10.430;2022-11-20T06:14:48;10.67;;;8.03;;
37895;SDS011;23733;53.254;10.430;2022-11-20T06:17:14;13.70;;;8.67;;
37895;SDS011;23733;53.254;10.430;2022-11-20T06:19:40;12.80;;;9.13;;
37895;SDS011;23733;53.254;10.430;2022-11-20T06:22:06;12.80;;;8.97;;
37895;SDS011;23733;53.254;10.430;2022-11-20T06:24:32;15.97;;;9.83;;
37895;SDS011;23733;53.254;10.430;2022-11-20T06:26:58;14.20;;;8.93;;
37895;SDS011;23733;53.254;10.430;2022-11-20T06:29:24;15.43;;;8.57;;
37895;SDS011;23733;53.254;10.430;2022-11-20T06:31:50;12.70;;;8.40;;
37895;SDS011;23733;53.254;10.430;2022-11-20T06:34:16;15.98;;;10.15;;
37895;SDS011;23733;53.254;10.430;2022-11-20T06:36:42;15.90;;;10.17;;
37895;SDS011;23733;53.254;10.430;2022-11-20T06:39:08;13.60;;;9.13;;
37895;SDS011;23733;53.254;10.430;2022-11-20T06:41:34;15.60;;;9.70;;
37895;SDS011;23733;53.254;10.430;2022-11-20T06:44:00;17.87;;;9.87;;
37895;SDS011;23733;53.254;10.430;2022-11-20T06:46:26;14.63;;;9.50;;
37895;SDS011;23733;53.254;10.430;2022-11-20T06:48:52;14.70;;;9.97;;
37895;SDS011;23733;53.254;10.430;2022-11-20T06:51:18;18.93;;;9.90;;
37895;SDS011;23733;53.254;10.430;2022-11-20T06:53:44;16.47;;;10.57;;
37895;SDS011;23733;53.254;10.430;2022-11-20T06:56:10;13.73;;;9.40;;
37895;SDS011;23733;53.254;10.430;2022-11-20T06:58:36;13.67;;;8.90;;
37895;SDS011;23733;53.254;10.430;2022-11-20T07:01:04;14.57;;;10.30;;
37895;SDS011;23733;53.254;10.430;2022-11-20T07:03:32;15.13;;;10.10;;
37895;SDS011;23733;53.254;10.430;2022-11-20T07:05:58;17.87;;;9.40;;
37895;SDS011;23733;53.254;10.430;2022-11-20T07:08:25;16.97;;;10.70;;
37895;SDS011;23733;53.254;10.430;2022-11-20T07:10:52;16.73;;;10.37;;
37895;SDS011;23733;53.254;10.430;2022-11-20T07:13:18;16.13;;;10.53;;
37895;SDS011;23733;53.254;10.430;2022-11-20T07:15:44;17.60;;;11.10;;
37895;SDS011;23733;53.254;10.430;2022-11-20T07:18:10;16.40;;;11.45;;
37895;SDS011;23733;53.254;10.430;2022-11-20T07:20:36;14.77;;;10.30;;
37895;SDS011;23733;53.254;10.430;2022-11-20T07:23:02;16.90;;;10.73;;
37895;SDS011;23733;53.254;10.430;2022-11-20T07:25:28;17.00;;;11.13;;
37895;SDS011;23733;53.254;10.430;2022-11-20T07:27:59;16.70;;;10.93;;
37895;SDS011;23733;53.254;10.430;2022-11-20T07:30:26;16.67;;;10.37;;
37895;SDS011;23733;53.254;10.430;2022-11-20T07:32:53;18.47;;;10.90;;
37895;SDS011;23733;53.254;10.430;2022-11-20T07:35:20;18.13;;;11.50;;
37895;SDS011;23733;53.254;10.430;2022-11-20T07:37:47;17.10;;;11.17;;
37895;SDS011;23733;53.254;10.430;2022-11-20T07:40:14;18.70;;;11.70;;
37895;SDS011;23733;53.254;10.430;2022-11-20T07:42:47;18.97;;;11.17;;
37895;SDS011;23733;53.254;10.430;2022-11-20T07:45:21;19.60;;;12.30;;
37895;SDS011;23733;53.254;10.430;2022-11-20T07:47:48;18.80;;;11.87;;
37895;SDS011;23733;53.254;10.430;2022-11-20T07:50:15;17.47;;;11.10;;
37895;SDS011;23733;53.254;10.430;2022-11-20T07:52:42;16.87;;;10.57;;
37895;SDS011;23733;53.254;10.430;2022-11-20T07:55:08;16.80;;;11.07;;
37895;SDS011;23733;53.254;10.430;2022-11-20T07:57:35;14.93;;;9.63;;
37895;SDS011;23733;53.254;10.430;2022-11-20T08:00:01;15.53;;;9.17;;
37895;SDS011;23733;53.254;10.430;2022-11-20T08:02:28;16.10;;;10.50;;
37895;SDS011;23733;53.254;10.430;2022-11-20T08:04:54;15.43;;;10.30;;
37895;SDS011;23733;53.254;10.430;2022-11-20T08:07:20;15.70;;;10.07;;
37895;SDS011;23733;53.254;10.430;2022-11-20T08:09:46;16.50;;;11.27;;
37895;SDS011;23733;53.254;10.430;2022-11-20T08:12:19;17.00;;;11.17;;
37895;SDS011;23733;53.254;10.430;2022-11-20T08:15:05;18.33;;;11.03;;
37895;SDS011;23733;53.254;10.430;2022-11-20T08:17:31;17.07;;;10.53;;
37895;SDS011;23733;53.254;10.430;2022-11-20T08:19:57;18.27;;;11.33;;
37895;SDS011;23733;53.254;10.430;2022-11-20T08:22:23;14.87;;;9.63;;
37895;SDS011;23733;53.254;10.430;2022-11-20T08:24:50;18.23;;;11.10;;
37895;SDS011;23733;53.254;10.430;2022-11-20T08:27:16;15.97;;;10.70;;
37895;SDS011;23733;53.254;10.430;2022-11-20T08:29:42;16.03;;;10.77;;
37895;SDS011;23733;53.254;10.430;2022-11-20T08:32:08;17.13;;;10.37;;
37895;SDS011;23733;53.254;10.430;2022-11-20T08:34:34;16.23;;;9.87;;
37895;SDS011;23733;53.254;10.430;2022-11-20T08:37:01;19.77;;;10.60;;
37895;SDS011;23733;53.254;10.430;2022-11-20T08:39:28;17.80;;;10.03;;
37895;SDS011;23733;53.254;10.430;2022-11-20T08:41:54;15.97;;;9.90;;
37895;SDS011;23733;53.254;10.430;2022-11-20T08:44:20;14.57;;;9.33;;
37895;SDS011;23733;53.254;10.430;2022-11-20T08:46:46;15.13;;;9.23;;
37895;SDS011;23733;53.254;10.430;2022-11-20T08:49:12;17.53;;;10.00;;
37895;SDS011;23733;53.254;10.430;2022-11-20T08:51:39;14.63;;;9.07;;
37895;SDS011;23733;53.254;10.430;2022-11-20T08:54:06;14.93;;;9.77;;
37895;SDS011;23733;53.254;10.430;2022-11-20T08:56:33;14.70;;;8.10;;
37895;SDS011;23733;53.254;10.430;2022-11-20T08:58:59;12.63;;;8.33;;
37895;SDS011;23733;53.254;10.430;2022-11-20T09:01:25;14.37;;;9.40;;
37895;SDS011;23733;53.254;10.430;2022-11-20T09:03:51;11.87;;;8.30;;
37895;SDS011;23733;53.254;10.430;2022-11-20T09:06:17;12.00;;;8.10;;
37895;SDS011;23733;53.254;10.430;2022-11-20T09:08:43;11.43;;;7.57;;
37895;SDS011;23733;53.254;10.430;2022-11-20T09:11:09;11.37;;;7.63;;
37895;SDS011;23733;53.254;10.430;2022-11-20T09:13:36;11.53;;;7.50;;
37895;SDS011;23733;53.254;10.430;2022-11-20T09:16:06;13.27;;;7.83;;
37895;SDS011;23733;53.254;10.430;2022-11-20T09:18:34;12.47;;;7.33;;
37895;SDS011;23733;53.254;10.430;2022-11-20T09:21:05;11.67;;;6.60;;
37895;SDS011;23733;53.254;10.430;2022-11-20T09:23:33;11.00;;;6.70;;
37895;SDS011;23733;53.254;10.430;2022-11-20T09:26:03;11.40;;;7.23;;
37895;SDS011;23733;53.254;10.430;2022-11-20T09:28:35;10.33;;;6.70;;
37895;SDS011;23733;53.254;10.430;2022-11-20T09:31:04;11.37;;;6.80;;
37895;SDS011;23733;53.254;10.430;2022-11-20T09:33:34;10.70;;;6.73;;
37895;SDS011;23733;53.254;10.430;2022-11-20T09:36:01;10.90;;;7.03;;
37895;SDS011;23733;53.254;10.430;2022-11-20T09:38:27;12.77;;;8.20;;
37895;SDS011;23733;53.254;10.430;2022-11-20T09:40:57;13.43;;;7.60;;
37895;SDS011;23733;53.254;10.430;2022-11-20T09:43:37;10.87;;;6.80;;
37895;SDS011;23733;53.254;10.430;2022-11-20T09:52:22;15.63;;;9.03;;
37895;SDS011;23733;53.254;10.430;2022-11-20T09:55:10;15.07;;;9.73;;
37895;SDS011;23733;53.254;10.430;2022-11-20T09:57:45;13.67;;;8.80;;
37895;SDS011;23733;53.254;10.430;2022-11-20T10:00:16;18.80;;;9.30;;
37895;SDS011;23733;53.254;10.430;2022-11-20T10:05:23;12.73;;;8.63;;
37895;SDS011;23733;53.254;10.430;2022-11-20T10:08:09;12.53;;;8.17;;
37895;SDS011;23733;53.254;10.430;2022-11-20T10:10:41;13.83;;;8.87;;
37895;SDS011;23733;53.254;10.430;2022-11-20T10:13:20;10.17;;;7.33;;
37895;SDS011;23733;53.254;10.430;2022-11-20T10:16:01;9.67;;;7.03;;
37895;SDS011;23733;53.254;10.430;2022-11-20T10:18:51;11.63;;;7.73;;
37895;SDS011;23733;53.254;10.430;2022-11-20T10:21:51;12.47;;;6.53;;
37895;SDS011;23733;53.254;10.430;2022-11-20T10:24:41;10.50;;;6.53;;
37895;SDS011;23733;53.254;10.430;2022-11-20T10:27:30;9.73;;;7.03;;
37895;SDS011;23733;53.254;10.430;2022-11-20T10:30:03;12.90;;;7.00;;
37895;SDS011;23733;53.254;10.430;2022-11-20T10:32:37;10.73;;;6.67;;
37895;SDS011;23733;53.254;10.430;2022-11-20T10:35:07;9.43;;;6.20;;
37895;SDS011;23733;53.254;10.430;2022-11-20T10:38:01;8.77;;;5.80;;
37895;SDS011;23733;53.254;10.430;2022-11-20T10:40:38;9.10;;;6.33;;
37895;SDS011;23733;53.254;10.430;2022-11-20T10:43:08;10.07;;;5.83;;
37895;SDS011;23733;53.254;10.430;2022-11-20T10:45:45;8.57;;;6.17;;
37895;SDS011;23733;53.254;10.430;2022-11-20T10:48:19;9.53;;;6.50;;
37895;SDS011;23733;53.254;10.430;2022-11-20T10:53:44;9.70;;;6.13;;
37895;SDS011;23733;53.254;10.430;2022-11-20T10:56:34;13.93;;;6.57;;
37895;SDS011;23733;53.254;10.430;2022-11-20T11:01:58;10.43;;;6.93;;
37895;SDS011;23733;53.254;10.430;2022-11-20T11:04:30;9.53;;;6.10;;
37895;SDS011;23733;53.254;10.430;2022-11-20T11:07:10;10.33;;;6.30;;
37895;SDS011;23733;53.254;10.430;2022-11-20T11:09:52;7.93;;;6.00;;
37895;SDS011;23733;53.254;10.430;2022-11-20T11:12:19;8.80;;;6.03;;
37895;SDS011;23733;53.254;10.430;2022-11-20T11:14:53;10.20;;;6.83;;
37895;SDS011;23733;53.254;10.430;2022-11-20T11:22:24;9.70;;;6.80;;
37895;SDS011;23733;53.254;10.430;2022-11-20T11:24:53;11.60;;;6.70;;
37895;SDS011;23733;53.254;10.430;2022-11-20T11:27:19;10.20;;;6.53;;
37895;SDS011;23733;53.254;10.430;2022-11-20T11:29:45;9.67;;;6.37;;
37895;SDS011;23733;53.254;10.430;2022-11-20T11:32:13;10.23;;;6.43;;
37895;SDS011;23733;53.254;10.430;2022-11-20T11:35:06;9.27;;;6.57;;
37895;SDS011;23733;53.254;10.430;2022-11-20T11:37:44;7.93;;;6.00;;
37895;SDS011;23733;53.254;10.430;2022-11-20T11:40:12;7.90;;;5.63;;
37895;SDS011;23733;53.254;10.430;2022-11-20T11:43:16;7.43;;;5.57;;
37895;SDS011;23733;53.254;10.430;2022-11-20T11:45:53;8.23;;;5.97;;
37895;SDS011;23733;53.254;10.430;2022-11-20T11:48:20;12.07;;;6.10;;
37895;SDS011;23733;53.254;10.430;2022-11-20T11:50:50;6.27;;;4.87;;
37895;SDS011;23733;53.254;10.430;2022-11-20T11:53:18;6.10;;;4.67;;
37895;SDS011;23733;53.254;10.430;2022-11-20T11:58:40;6.43;;;4.63;;
37895;SDS011;23733;53.254;10.430;2022-11-20T12:04:04;6.83;;;4.40;;
37895;SDS011;23733;53.254;10.430;2022-11-20T12:07:10;7.83;;;4.33;;
37895;SDS011;23733;53.254;10.430;2022-11-20T12:09:46;6.50;;;4.40;;
37895;SDS011;23733;53.254;10.430;2022-11-20T12:12:17;5.17;;;4.07;;
37895;SDS011;23733;53.254;10.430;2022-11-20T12:14:48;5.00;;;4.03;;
37895;SDS011;23733;53.254;10.430;2022-11-20T12:17:18;5.23;;;3.83;;
37895;SDS011;23733;53.254;10.430;2022-11-20T12:19:44;6.27;;;3.67;;
37895;SDS011;23733;53.254;10.430;2022-11-20T12:25:14;4.57;;;3.60;;
37895;SDS011;23733;53.254;10.430;2022-11-20T12:30:45;6.53;;;3.80;;
37895;SDS011;23733;53.254;10.430;2022-11-20T12:33:43;6.63;;;3.93;;
37895;SDS011;23733;53.254;10.430;2022-11-20T12:36:40;5.47;;;4.00;;
37895;SDS011;23733;53.254;10.430;2022-11-20T12:42:04;5.77;;;4.23;;
37895;SDS011;23733;53.254;10.430;2022-11-20T12:45:12;6.47;;;4.47;;
37895;SDS011;23733;53.254;10.430;2022-11-20T12:47:59;5.83;;;4.63;;
37895;SDS011;23733;53.254;10.430;2022-11-20T12:50:42;7.40;;;5.00;;
37895;SDS011;23733;53.254;10.430;2022-11-20T12:53:25;5.40;;;4.40;;
37895;SDS011;23733;53.254;10.430;2022-11-20T12:59:12;6.77;;;5.30;;
37895;SDS011;23733;53.254;10.430;2022-11-20T13:02:02;6.47;;;4.90;;
37895;SDS011;23733;53.254;10.430;2022-11-20T13:04:58;5.97;;;5.00;;
37895;SDS011;23733;53.254;10.430;2022-11-20T13:07:42;7.93;;;5.17;;
37895;SDS011;23733;53.254;10.430;2022-11-20T13:10:18;7.00;;;5.17;;
37895;SDS011;23733;53.254;10.430;2022-11-20T13:12:54;6.27;;;4.67;;
37895;SDS011;23733;53.254;10.430;2022-11-20T13:18:16;8.70;;;5.20;;
37895;SDS011;23733;53.254;10.430;2022-11-20T13:20:43;6.80;;;4.80;;
37895;SDS011;23733;53.254;10.430;2022-11-20T13:23:10;5.87;;;4.43;;
37895;SDS011;23733;53.254;10.430;2022-11-20T13:25:39;5.73;;;4.80;;
37895;SDS011;23733;53.254;10.430;2022-11-20T13:30:35;5.70;;;4.20;;
37895;SDS011;23733;53.254;10.430;2022-11-20T13:33:08;6.57;;;5.07;;
37895;SDS011;23733;53.254;10.430;2022-11-20T13:35:58;6.20;;;5.00;;
37895;SDS011;23733;53.254;10.430;2022-11-20T13:38:40;6.90;;;5.10;;
37895;SDS011;23733;53.254;10.430;2022-11-20T13:41:22;6.53;;;5.07;;
37895;SDS011;23733;53.254;10.430;2022-11-20T13:44:05;6.30;;;4.67;;
37895;SDS011;23733;53.254;10.430;2022-11-20T13:46:50;7.13;;;5.37;;
37895;SDS011;23733;53.254;10.430;2022-11-20T13:49:17;6.43;;;4.57;;
37895;SDS011;23733;53.254;10.430;2022-11-20T13:54:43;6.23;;;4.07;;
37895;SDS011;23733;53.254;10.430;2022-11-20T13:57:35;5.63;;;4.10;;
37895;SDS011;23733;53.254;10.430;2022-11-20T14:00:20;6.40;;;3.13;;
37895;SDS011;23733;53.254;10.430;2022-11-20T14:05:45;4.23;;;3.30;;
37895;SDS011;23733;53.254;10.430;2022-11-20T14:08:23;3.88;;;3.40;;
37895;SDS011;23733;53.254;10.430;2022-11-20T14:11:02;5.80;;;3.70;;
37895;SDS011;23733;53.254;10.430;2022-11-20T14:13:37;5.97;;;4.80;;
37895;SDS011;23733;53.254;10.430;2022-11-20T14:16:03;4.40;;;3.30;;
37895;SDS011;23733;53.254;10.430;2022-11-20T14:18:30;5.90;;;3.50;;
37895;SDS011;23733;53.254;10.430;2022-11-20T14:20:56;4.50;;;3.23;;
37895;SDS011;23733;53.254;10.430;2022-11-20T14:23:27;4.63;;;3.50;;
37895;SDS011;23733;53.254;10.430;2022-11-20T14:25:54;5.67;;;4.00;;
37895;SDS011;23733;53.254;10.430;2022-11-20T14:28:25;5.30;;;3.60;;
37895;SDS011;23733;53.254;10.430;2022-11-20T14:30:52;4.97;;;3.60;;
37895;SDS011;23733;53.254;10.430;2022-11-20T14:33:20;6.30;;;4.40;;
37895;SDS011;23733;53.254;10.430;2022-11-20T14:35:54;5.27;;;3.90;;
37895;SDS011;23733;53.254;10.430;2022-11-20T14:38:23;5.77;;;4.20;;
37895;SDS011;23733;53.254;10.430;2022-11-20T14:40:51;6.47;;;4.40;;
37895;SDS011;23733;53.254;10.430;2022-11-20T14:43:19;7.73;;;4.60;;
37895;SDS011;23733;53.254;10.430;2022-11-20T14:45:58;6.50;;;4.50;;
37895;SDS011;23733;53.254;10.430;2022-11-20T14:48:30;6.43;;;4.60;;
37895;SDS011;23733;53.254;10.430;2022-11-20T14:51:04;6.80;;;4.70;;
37895;SDS011;23733;53.254;10.430;2022-11-20T14:53:30;6.90;;;4.30;;
37895;SDS011;23733;53.254;10.430;2022-11-20T14:56:00;5.67;;;3.90;;
37895;SDS011;23733;53.254;10.430;2022-11-20T14:58:28;4.30;;;3.47;;
37895;SDS011;23733;53.254;10.430;2022-11-20T15:00:58;4.50;;;3.63;;
37895;SDS011;23733;53.254;10.430;2022-11-20T15:03:32;7.40;;;4.20;;
37895;SDS011;23733;53.254;10.430;2022-11-20T15:05:59;5.87;;;4.03;;
37895;SDS011;23733;53.254;10.430;2022-11-20T15:08:25;5.80;;;4.20;;
37895;SDS011;23733;53.254;10.430;2022-11-20T15:10:51;6.00;;;3.73;;
37895;SDS011;23733;53.254;10.430;2022-11-20T15:13:31;6.00;;;4.40;;
37895;SDS011;23733;53.254;10.430;2022-11-20T15:15:59;5.10;;;3.50;;
37895;SDS011;23733;53.254;10.430;2022-11-20T15:18:35;5.50;;;4.07;;
37895;SDS011;23733;53.254;10.430;2022-11-20T15:21:03;7.20;;;3.73;;
37895;SDS011;23733;53.254;10.430;2022-11-20T15:23:30;4.77;;;3.60;;
37895;SDS011;23733;53.254;10.430;2022-11-20T15:25:56;7.47;;;3.37;;
37895;SDS011;23733;53.254;10.430;2022-11-20T15:28:41;5.40;;;3.60;;
37895;SDS011;23733;53.254;10.430;2022-11-20T15:31:12;6.13;;;3.30;;
37895;SDS011;23733;53.254;10.430;2022-11-20T15:33:38;5.33;;;3.30;;
37895;SDS011;23733;53.254;10.430;2022-11-20T15:36:04;4.23;;;3.47;;
37895;SDS011;23733;53.254;10.430;2022-11-20T15:38:31;5.93;;;3.63;;
37895;SDS011;23733;53.254;10.430;2022-11-20T15:40:57;6.83;;;4.43;;
37895;SDS011;23733;53.254;10.430;2022-11-20T15:43:23;6.33;;;4.80;;
37895;SDS011;23733;53.254;10.430;2022-11-20T15:45:49;8.47;;;5.90;;